Alamogordo/Holloman AFB, New Mexico
Current Conditions -  °F | °C
As of 2:58 PM on Thursday 23 Oct 2014 (Local Time) from KHMN Reporting Station
Clear Clear  
Wind Chill: 77°   Ceiling: Unl
Heat Index: 78°   Visibility: 10mi
Dew Point: 48°   Wind: 3mph
Humidity: 36%   Direction: NA
Pressure: 30.14"   Gusts: NA
Location:  32.85°N, 106.1°W
Report Text: KHMN 232058Z AUTO VRB03KT 10SM CLR 25/09 A3014 RMK AO2 SLP155 T02520090 57021 $
Loading
Personal Weather Stations






























Interactive Weather Map
Tropical Storm Tracking
New forecast layout! Learn more

10-Day Weather Forecast

Advertisements
Track Severe Weather on mobile